sensor_id;sensor_type;location;lat;lon;timestamp;P1;durP1;ratioP1;P2;durP2;ratioP2
84031;SDS011;74113;46.556;24.570;2023-11-21T00:01:35;7.50;;;3.50;;
84031;SDS011;74113;46.556;24.570;2023-11-21T00:04:04;5.50;;;3.00;;
84031;SDS011;74113;46.556;24.570;2023-11-21T00:06:33;5.30;;;2.50;;
84031;SDS011;74113;46.556;24.570;2023-11-21T00:09:02;5.20;;;2.90;;
84031;SDS011;74113;46.556;24.570;2023-11-21T00:11:30;7.00;;;2.70;;
84031;SDS011;74113;46.556;24.570;2023-11-21T00:13:59;5.50;;;3.30;;
84031;SDS011;74113;46.556;24.570;2023-11-21T00:16:27;6.50;;;4.70;;
84031;SDS011;74113;46.556;24.570;2023-11-21T00:18:56;7.60;;;3.80;;
84031;SDS011;74113;46.556;24.570;2023-11-21T00:21:25;6.20;;;2.40;;
84031;SDS011;74113;46.556;24.570;2023-11-21T00:23:53;5.80;;;3.40;;
84031;SDS011;74113;46.556;24.570;2023-11-21T00:26:22;5.90;;;2.80;;
84031;SDS011;74113;46.556;24.570;2023-11-21T00:28:57;6.90;;;4.90;;
84031;SDS011;74113;46.556;24.570;2023-11-21T00:31:26;5.40;;;2.40;;
84031;SDS011;74113;46.556;24.570;2023-11-21T00:33:54;6.80;;;3.60;;
84031;SDS011;74113;46.556;24.570;2023-11-21T00:36:23;5.40;;;2.70;;
84031;SDS011;74113;46.556;24.570;2023-11-21T00:38:53;4.30;;;2.50;;
84031;SDS011;74113;46.556;24.570;2023-11-21T00:41:24;6.70;;;5.20;;
84031;SDS011;74113;46.556;24.570;2023-11-21T00:43:55;6.20;;;2.60;;
84031;SDS011;74113;46.556;24.570;2023-11-21T00:46:24;5.70;;;3.00;;
84031;SDS011;74113;46.556;24.570;2023-11-21T00:48:55;6.30;;;2.40;;
84031;SDS011;74113;46.556;24.570;2023-11-21T00:51:24;5.20;;;2.80;;
84031;SDS011;74113;46.556;24.570;2023-11-21T00:56:21;5.60;;;3.40;;
84031;SDS011;74113;46.556;24.570;2023-11-21T00:58:50;7.30;;;4.70;;
84031;SDS011;74113;46.556;24.570;2023-11-21T01:01:20;6.50;;;3.50;;
84031;SDS011;74113;46.556;24.570;2023-11-21T01:03:52;7.20;;;3.80;;
84031;SDS011;74113;46.556;24.570;2023-11-21T01:06:22;6.40;;;3.10;;
84031;SDS011;74113;46.556;24.570;2023-11-21T01:08:50;6.40;;;5.00;;
84031;SDS011;74113;46.556;24.570;2023-11-21T01:11:19;5.10;;;2.40;;
84031;SDS011;74113;46.556;24.570;2023-11-21T01:13:48;5.80;;;2.80;;
84031;SDS011;74113;46.556;24.570;2023-11-21T01:16:17;4.00;;;2.10;;
84031;SDS011;74113;46.556;24.570;2023-11-21T01:18:45;5.70;;;2.80;;
84031;SDS011;74113;46.556;24.570;2023-11-21T01:21:14;4.70;;;2.40;;
84031;SDS011;74113;46.556;24.570;2023-11-21T01:23:42;6.10;;;2.80;;
84031;SDS011;74113;46.556;24.570;2023-11-21T01:28:39;5.90;;;2.10;;
84031;SDS011;74113;46.556;24.570;2023-11-21T01:31:08;4.20;;;2.60;;
84031;SDS011;74113;46.556;24.570;2023-11-21T01:33:36;4.80;;;2.60;;
84031;SDS011;74113;46.556;24.570;2023-11-21T01:36:05;5.40;;;2.70;;
84031;SDS011;74113;46.556;24.570;2023-11-21T01:38:34;4.00;;;2.10;;
84031;SDS011;74113;46.556;24.570;2023-11-21T01:41:03;3.30;;;1.70;;
84031;SDS011;74113;46.556;24.570;2023-11-21T01:43:32;2.80;;;1.30;;
84031;SDS011;74113;46.556;24.570;2023-11-21T01:46:00;5.90;;;3.50;;
84031;SDS011;74113;46.556;24.570;2023-11-21T01:48:29;4.50;;;2.20;;
84031;SDS011;74113;46.556;24.570;2023-11-21T01:50:58;5.20;;;3.00;;
84031;SDS011;74113;46.556;24.570;2023-11-21T01:53:30;7.20;;;4.40;;
84031;SDS011;74113;46.556;24.570;2023-11-21T01:55:59;6.10;;;3.60;;
84031;SDS011;74113;46.556;24.570;2023-11-21T01:58:28;6.80;;;3.40;;
84031;SDS011;74113;46.556;24.570;2023-11-21T02:00:56;5.60;;;3.10;;
84031;SDS011;74113;46.556;24.570;2023-11-21T02:03:26;4.90;;;2.60;;
84031;SDS011;74113;46.556;24.570;2023-11-21T02:05:55;5.30;;;2.80;;
84031;SDS011;74113;46.556;24.570;2023-11-21T02:08:24;6.30;;;4.20;;
84031;SDS011;74113;46.556;24.570;2023-11-21T02:10:53;5.40;;;2.70;;
84031;SDS011;74113;46.556;24.570;2023-11-21T02:13:21;5.20;;;2.60;;
84031;SDS011;74113;46.556;24.570;2023-11-21T02:15:49;4.70;;;2.90;;
84031;SDS011;74113;46.556;24.570;2023-11-21T02:18:20;5.50;;;2.90;;
84031;SDS011;74113;46.556;24.570;2023-11-21T02:20:50;4.30;;;2.60;;
84031;SDS011;74113;46.556;24.570;2023-11-21T02:23:19;5.70;;;3.10;;
84031;SDS011;74113;46.556;24.570;2023-11-21T02:25:47;3.90;;;2.60;;
84031;SDS011;74113;46.556;24.570;2023-11-21T02:28:16;3.90;;;1.70;;
84031;SDS011;74113;46.556;24.570;2023-11-21T02:30:53;5.70;;;3.10;;
84031;SDS011;74113;46.556;24.570;2023-11-21T02:33:27;5.70;;;1.70;;
84031;SDS011;74113;46.556;24.570;2023-11-21T02:35:55;3.80;;;2.20;;
84031;SDS011;74113;46.556;24.570;2023-11-21T02:38:24;3.90;;;2.10;;
84031;SDS011;74113;46.556;24.570;2023-11-21T02:40:52;4.30;;;3.10;;
84031;SDS011;74113;46.556;24.570;2023-11-21T02:43:21;4.90;;;3.20;;
84031;SDS011;74113;46.556;24.570;2023-11-21T02:45:50;5.00;;;3.20;;
84031;SDS011;74113;46.556;24.570;2023-11-21T02:48:19;6.30;;;4.40;;
84031;SDS011;74113;46.556;24.570;2023-11-21T02:53:15;6.00;;;2.90;;
84031;SDS011;74113;46.556;24.570;2023-11-21T02:55:44;4.00;;;3.60;;
84031;SDS011;74113;46.556;24.570;2023-11-21T02:58:13;3.40;;;1.60;;
84031;SDS011;74113;46.556;24.570;2023-11-21T03:00:43;4.80;;;2.20;;
84031;SDS011;74113;46.556;24.570;2023-11-21T03:03:12;4.60;;;2.20;;
84031;SDS011;74113;46.556;24.570;2023-11-21T03:05:41;4.40;;;1.90;;
84031;SDS011;74113;46.556;24.570;2023-11-21T03:08:09;4.30;;;2.20;;
84031;SDS011;74113;46.556;24.570;2023-11-21T03:10:38;3.60;;;2.40;;
84031;SDS011;74113;46.556;24.570;2023-11-21T03:13:06;4.50;;;2.70;;
84031;SDS011;74113;46.556;24.570;2023-11-21T03:15:35;4.50;;;1.90;;
84031;SDS011;74113;46.556;24.570;2023-11-21T03:18:04;3.20;;;1.20;;
84031;SDS011;74113;46.556;24.570;2023-11-21T03:20:33;4.90;;;2.10;;
84031;SDS011;74113;46.556;24.570;2023-11-21T03:23:03;3.60;;;1.60;;
84031;SDS011;74113;46.556;24.570;2023-11-21T03:25:33;6.10;;;3.30;;
84031;SDS011;74113;46.556;24.570;2023-11-21T03:28:01;3.40;;;1.80;;
84031;SDS011;74113;46.556;24.570;2023-11-21T03:30:30;3.60;;;1.60;;
84031;SDS011;74113;46.556;24.570;2023-11-21T03:32:59;5.70;;;2.10;;
84031;SDS011;74113;46.556;24.570;2023-11-21T03:35:27;5.20;;;3.30;;
84031;SDS011;74113;46.556;24.570;2023-11-21T03:37:56;3.00;;;1.50;;
84031;SDS011;74113;46.556;24.570;2023-11-21T03:40:24;2.50;;;1.10;;
84031;SDS011;74113;46.556;24.570;2023-11-21T03:42:53;3.50;;;2.30;;
84031;SDS011;74113;46.556;24.570;2023-11-21T03:47:50;3.30;;;1.20;;
84031;SDS011;74113;46.556;24.570;2023-11-21T03:50:18;3.00;;;1.70;;
84031;SDS011;74113;46.556;24.570;2023-11-21T03:52:47;4.50;;;3.40;;
84031;SDS011;74113;46.556;24.570;2023-11-21T03:57:45;3.00;;;1.70;;
84031;SDS011;74113;46.556;24.570;2023-11-21T04:00:13;3.90;;;3.40;;
84031;SDS011;74113;46.556;24.570;2023-11-21T04:02:42;3.70;;;2.60;;
84031;SDS011;74113;46.556;24.570;2023-11-21T04:05:11;3.00;;;2.30;;
84031;SDS011;74113;46.556;24.570;2023-11-21T04:07:40;3.10;;;2.30;;
84031;SDS011;74113;46.556;24.570;2023-11-21T04:10:09;2.60;;;1.00;;
84031;SDS011;74113;46.556;24.570;2023-11-21T04:12:40;2.70;;;1.40;;
84031;SDS011;74113;46.556;24.570;2023-11-21T04:15:09;2.80;;;2.20;;
84031;SDS011;74113;46.556;24.570;2023-11-21T04:17:38;2.70;;;1.50;;
84031;SDS011;74113;46.556;24.570;2023-11-21T04:20:07;2.50;;;1.10;;
84031;SDS011;74113;46.556;24.570;2023-11-21T04:22:39;2.70;;;2.20;;
84031;SDS011;74113;46.556;24.570;2023-11-21T04:25:15;3.10;;;1.30;;
84031;SDS011;74113;46.556;24.570;2023-11-21T04:27:44;4.70;;;3.20;;
84031;SDS011;74113;46.556;24.570;2023-11-21T04:30:14;3.80;;;1.70;;
84031;SDS011;74113;46.556;24.570;2023-11-21T04:32:43;2.90;;;1.40;;
84031;SDS011;74113;46.556;24.570;2023-11-21T04:35:12;4.00;;;2.10;;
84031;SDS011;74113;46.556;24.570;2023-11-21T04:40:09;3.00;;;2.50;;
84031;SDS011;74113;46.556;24.570;2023-11-21T04:42:38;3.80;;;1.40;;
84031;SDS011;74113;46.556;24.570;2023-11-21T04:45:07;3.00;;;1.40;;
84031;SDS011;74113;46.556;24.570;2023-11-21T04:50:10;3.20;;;1.60;;
84031;SDS011;74113;46.556;24.570;2023-11-21T04:52:39;2.80;;;1.40;;
84031;SDS011;74113;46.556;24.570;2023-11-21T04:55:07;3.90;;;1.10;;
84031;SDS011;74113;46.556;24.570;2023-11-21T04:57:39;2.50;;;1.50;;
84031;SDS011;74113;46.556;24.570;2023-11-21T05:00:11;3.30;;;1.90;;
84031;SDS011;74113;46.556;24.570;2023-11-21T05:02:41;3.80;;;2.10;;
84031;SDS011;74113;46.556;24.570;2023-11-21T05:05:10;2.50;;;1.60;;
84031;SDS011;74113;46.556;24.570;2023-11-21T05:07:39;4.00;;;1.70;;
84031;SDS011;74113;46.556;24.570;2023-11-21T05:10:10;3.40;;;1.40;;
84031;SDS011;74113;46.556;24.570;2023-11-21T05:12:43;3.20;;;1.20;;
84031;SDS011;74113;46.556;24.570;2023-11-21T05:15:13;2.90;;;1.10;;
84031;SDS011;74113;46.556;24.570;2023-11-21T05:17:43;3.90;;;1.70;;
84031;SDS011;74113;46.556;24.570;2023-11-21T05:20:14;2.60;;;1.30;;
84031;SDS011;74113;46.556;24.570;2023-11-21T05:22:47;2.90;;;1.60;;
84031;SDS011;74113;46.556;24.570;2023-11-21T05:25:19;2.70;;;1.20;;
84031;SDS011;74113;46.556;24.570;2023-11-21T05:27:48;2.90;;;1.60;;
84031;SDS011;74113;46.556;24.570;2023-11-21T05:30:17;3.70;;;2.80;;
84031;SDS011;74113;46.556;24.570;2023-11-21T05:32:45;3.50;;;1.90;;
84031;SDS011;74113;46.556;24.570;2023-11-21T05:35:15;3.60;;;1.80;;
84031;SDS011;74113;46.556;24.570;2023-11-21T05:37:45;3.90;;;1.40;;
84031;SDS011;74113;46.556;24.570;2023-11-21T05:40:15;5.90;;;3.60;;
84031;SDS011;74113;46.556;24.570;2023-11-21T05:42:44;6.30;;;2.80;;
84031;SDS011;74113;46.556;24.570;2023-11-21T05:45:13;5.40;;;4.40;;
84031;SDS011;74113;46.556;24.570;2023-11-21T05:47:44;4.00;;;2.00;;
84031;SDS011;74113;46.556;24.570;2023-11-21T05:50:16;3.30;;;2.00;;
84031;SDS011;74113;46.556;24.570;2023-11-21T05:52:47;4.40;;;1.10;;
84031;SDS011;74113;46.556;24.570;2023-11-21T05:55:17;3.60;;;2.00;;
84031;SDS011;74113;46.556;24.570;2023-11-21T05:57:54;5.40;;;1.90;;
84031;SDS011;74113;46.556;24.570;2023-11-21T06:00:23;3.30;;;1.40;;
84031;SDS011;74113;46.556;24.570;2023-11-21T06:02:54;2.90;;;2.00;;
84031;SDS011;74113;46.556;24.570;2023-11-21T06:05:25;2.90;;;2.30;;
84031;SDS011;74113;46.556;24.570;2023-11-21T06:07:55;3.50;;;1.40;;
84031;SDS011;74113;46.556;24.570;2023-11-21T06:10:28;4.70;;;2.20;;
84031;SDS011;74113;46.556;24.570;2023-11-21T06:12:58;4.50;;;2.70;;
84031;SDS011;74113;46.556;24.570;2023-11-21T06:15:31;3.40;;;1.40;;
84031;SDS011;74113;46.556;24.570;2023-11-21T06:18:00;5.20;;;2.90;;
84031;SDS011;74113;46.556;24.570;2023-11-21T06:20:29;3.60;;;1.90;;
84031;SDS011;74113;46.556;24.570;2023-11-21T06:22:58;4.90;;;2.80;;
84031;SDS011;74113;46.556;24.570;2023-11-21T06:28:04;3.40;;;1.60;;
84031;SDS011;74113;46.556;24.570;2023-11-21T06:30:33;3.50;;;2.10;;
84031;SDS011;74113;46.556;24.570;2023-11-21T06:35:31;2.60;;;2.20;;
84031;SDS011;74113;46.556;24.570;2023-11-21T06:38:02;4.30;;;1.80;;
84031;SDS011;74113;46.556;24.570;2023-11-21T06:40:31;2.90;;;1.20;;
84031;SDS011;74113;46.556;24.570;2023-11-21T06:43:02;4.30;;;2.00;;
84031;SDS011;74113;46.556;24.570;2023-11-21T06:45:30;4.20;;;1.70;;
84031;SDS011;74113;46.556;24.570;2023-11-21T06:47:58;4.30;;;2.50;;
84031;SDS011;74113;46.556;24.570;2023-11-21T06:50:28;4.90;;;2.80;;
84031;SDS011;74113;46.556;24.570;2023-11-21T06:52:59;7.80;;;3.10;;
84031;SDS011;74113;46.556;24.570;2023-11-21T06:56:03;5.90;;;3.00;;
84031;SDS011;74113;46.556;24.570;2023-11-21T06:58:36;7.90;;;3.50;;
84031;SDS011;74113;46.556;24.570;2023-11-21T07:01:05;7.30;;;4.90;;
84031;SDS011;74113;46.556;24.570;2023-11-21T07:03:35;8.90;;;4.70;;
84031;SDS011;74113;46.556;24.570;2023-11-21T07:06:07;7.90;;;5.00;;
84031;SDS011;74113;46.556;24.570;2023-11-21T07:08:43;8.50;;;4.10;;
84031;SDS011;74113;46.556;24.570;2023-11-21T07:11:56;6.40;;;3.80;;
84031;SDS011;74113;46.556;24.570;2023-11-21T07:14:47;7.20;;;3.80;;
84031;SDS011;74113;46.556;24.570;2023-11-21T07:17:18;9.10;;;5.00;;
84031;SDS011;74113;46.556;24.570;2023-11-21T07:19:57;6.90;;;4.20;;
84031;SDS011;74113;46.556;24.570;2023-11-21T07:22:29;7.40;;;4.30;;
84031;SDS011;74113;46.556;24.570;2023-11-21T07:25:00;5.30;;;2.60;;
84031;SDS011;74113;46.556;24.570;2023-11-21T07:27:29;9.40;;;4.20;;
84031;SDS011;74113;46.556;24.570;2023-11-21T07:29:58;6.20;;;3.10;;
84031;SDS011;74113;46.556;24.570;2023-11-21T07:32:36;8.50;;;4.10;;
84031;SDS011;74113;46.556;24.570;2023-11-21T07:35:05;5.60;;;3.30;;
84031;SDS011;74113;46.556;24.570;2023-11-21T07:37:47;6.10;;;4.10;;
84031;SDS011;74113;46.556;24.570;2023-11-21T07:40:26;7.90;;;3.90;;
84031;SDS011;74113;46.556;24.570;2023-11-21T07:43:03;8.00;;;5.30;;
84031;SDS011;74113;46.556;24.570;2023-11-21T07:45:34;10.80;;;5.10;;
84031;SDS011;74113;46.556;24.570;2023-11-21T07:48:03;9.40;;;4.60;;
84031;SDS011;74113;46.556;24.570;2023-11-21T07:50:35;9.00;;;4.90;;
84031;SDS011;74113;46.556;24.570;2023-11-21T07:53:03;5.70;;;4.20;;
84031;SDS011;74113;46.556;24.570;2023-11-21T07:55:34;6.90;;;3.40;;
84031;SDS011;74113;46.556;24.570;2023-11-21T07:58:04;5.70;;;3.80;;
84031;SDS011;74113;46.556;24.570;2023-11-21T08:00:33;7.00;;;4.40;;
84031;SDS011;74113;46.556;24.570;2023-11-21T08:03:02;6.60;;;4.10;;
84031;SDS011;74113;46.556;24.570;2023-11-21T08:05:32;9.30;;;5.40;;
84031;SDS011;74113;46.556;24.570;2023-11-21T08:08:05;8.20;;;4.40;;
84031;SDS011;74113;46.556;24.570;2023-11-21T08:10:34;9.80;;;5.20;;
84031;SDS011;74113;46.556;24.570;2023-11-21T08:13:07;6.80;;;4.90;;
84031;SDS011;74113;46.556;24.570;2023-11-21T08:15:37;6.60;;;3.90;;
84031;SDS011;74113;46.556;24.570;2023-11-21T08:18:07;6.10;;;4.60;;
84031;SDS011;74113;46.556;24.570;2023-11-21T08:20:39;5.90;;;2.80;;
84031;SDS011;74113;46.556;24.570;2023-11-21T08:23:08;11.50;;;4.60;;
84031;SDS011;74113;46.556;24.570;2023-11-21T08:25:37;5.80;;;2.90;;
84031;SDS011;74113;46.556;24.570;2023-11-21T08:28:05;4.00;;;2.60;;
84031;SDS011;74113;46.556;24.570;2023-11-21T08:30:34;4.30;;;3.00;;
84031;SDS011;74113;46.556;24.570;2023-11-21T08:33:03;6.80;;;4.90;;
84031;SDS011;74113;46.556;24.570;2023-11-21T08:35:31;4.20;;;2.60;;
84031;SDS011;74113;46.556;24.570;2023-11-21T08:38:01;7.70;;;4.20;;
84031;SDS011;74113;46.556;24.570;2023-11-21T08:40:30;6.60;;;4.50;;
84031;SDS011;74113;46.556;24.570;2023-11-21T08:42:59;6.10;;;4.60;;
84031;SDS011;74113;46.556;24.570;2023-11-21T08:45:28;6.00;;;2.90;;
84031;SDS011;74113;46.556;24.570;2023-11-21T08:47:57;3.20;;;2.80;;
84031;SDS011;74113;46.556;24.570;2023-11-21T08:50:26;5.90;;;3.70;;
84031;SDS011;74113;46.556;24.570;2023-11-21T08:52:54;4.60;;;2.40;;
84031;SDS011;74113;46.556;24.570;2023-11-21T08:55:24;4.50;;;1.90;;
84031;SDS011;74113;46.556;24.570;2023-11-21T08:57:53;4.50;;;2.50;;
84031;SDS011;74113;46.556;24.570;2023-11-21T09:00:25;3.20;;;1.80;;
84031;SDS011;74113;46.556;24.570;2023-11-21T09:03:00;2.80;;;1.20;;
84031;SDS011;74113;46.556;24.570;2023-11-21T09:05:33;3.40;;;1.50;;
84031;SDS011;74113;46.556;24.570;2023-11-21T09:08:01;4.80;;;2.80;;
84031;SDS011;74113;46.556;24.570;2023-11-21T09:10:31;7.90;;;4.60;;
84031;SDS011;74113;46.556;24.570;2023-11-21T09:13:01;6.60;;;3.40;;
84031;SDS011;74113;46.556;24.570;2023-11-21T09:15:30;4.70;;;3.20;;
84031;SDS011;74113;46.556;24.570;2023-11-21T09:17:59;8.40;;;3.80;;
84031;SDS011;74113;46.556;24.570;2023-11-21T09:20:28;7.50;;;4.40;;
84031;SDS011;74113;46.556;24.570;2023-11-21T09:22:57;9.00;;;3.60;;
84031;SDS011;74113;46.556;24.570;2023-11-21T09:25:26;6.60;;;3.20;;
84031;SDS011;74113;46.556;24.570;2023-11-21T09:27:56;5.60;;;3.70;;
84031;SDS011;74113;46.556;24.570;2023-11-21T09:30:26;6.60;;;4.10;;
84031;SDS011;74113;46.556;24.570;2023-11-21T09:32:55;4.80;;;2.40;;
84031;SDS011;74113;46.556;24.570;2023-11-21T09:35:24;6.20;;;3.30;;
84031;SDS011;74113;46.556;24.570;2023-11-21T09:37:53;5.60;;;3.50;;
84031;SDS011;74113;46.556;24.570;2023-11-21T09:40:22;4.90;;;2.60;;
84031;SDS011;74113;46.556;24.570;2023-11-21T09:45:28;4.10;;;2.90;;
84031;SDS011;74113;46.556;24.570;2023-11-21T09:48:02;4.20;;;2.50;;
84031;SDS011;74113;46.556;24.570;2023-11-21T09:50:31;3.70;;;1.90;;
84031;SDS011;74113;46.556;24.570;2023-11-21T09:53:20;3.90;;;1.40;;
84031;SDS011;74113;46.556;24.570;2023-11-21T09:55:51;4.40;;;1.50;;
84031;SDS011;74113;46.556;24.570;2023-11-21T09:58:21;3.30;;;1.70;;
84031;SDS011;74113;46.556;24.570;2023-11-21T10:00:55;4.60;;;2.00;;
84031;SDS011;74113;46.556;24.570;2023-11-21T10:03:26;3.90;;;1.60;;
84031;SDS011;74113;46.556;24.570;2023-11-21T10:05:57;3.90;;;1.90;;
84031;SDS011;74113;46.556;24.570;2023-11-21T10:08:33;7.00;;;2.40;;
84031;SDS011;74113;46.556;24.570;2023-11-21T10:11:17;3.00;;;1.10;;
84031;SDS011;74113;46.556;24.570;2023-11-21T10:13:54;4.20;;;2.00;;
84031;SDS011;74113;46.556;24.570;2023-11-21T10:16:27;4.70;;;2.50;;
84031;SDS011;74113;46.556;24.570;2023-11-21T10:18:57;5.60;;;2.50;;
84031;SDS011;74113;46.556;24.570;2023-11-21T10:21:38;2.60;;;1.10;;
84031;SDS011;74113;46.556;24.570;2023-11-21T10:24:08;6.40;;;2.20;;
84031;SDS011;74113;46.556;24.570;2023-11-21T10:26:43;3.60;;;2.10;;
84031;SDS011;74113;46.556;24.570;2023-11-21T10:29:20;4.90;;;2.50;;
84031;SDS011;74113;46.556;24.570;2023-11-21T10:31:53;3.50;;;1.80;;
84031;SDS011;74113;46.556;24.570;2023-11-21T10:34:26;4.40;;;1.50;;
84031;SDS011;74113;46.556;24.570;2023-11-21T10:36:55;3.50;;;1.80;;
84031;SDS011;74113;46.556;24.570;2023-11-21T10:39:26;2.70;;;1.40;;
84031;SDS011;74113;46.556;24.570;2023-11-21T10:42:00;3.00;;;1.60;;
84031;SDS011;74113;46.556;24.570;2023-11-21T10:44:29;4.00;;;2.20;;
84031;SDS011;74113;46.556;24.570;2023-11-21T10:46:59;4.40;;;1.60;;
84031;SDS011;74113;46.556;24.570;2023-11-21T10:49:30;2.80;;;1.60;;
84031;SDS011;74113;46.556;24.570;2023-11-21T10:51:59;3.80;;;1.50;;
84031;SDS011;74113;46.556;24.570;2023-11-21T10:54:28;3.30;;;1.50;;
84031;SDS011;74113;46.556;24.570;2023-11-21T10:56:59;5.50;;;3.80;;
84031;SDS011;74113;46.556;24.570;2023-11-21T10:59:30;3.40;;;1.50;;
84031;SDS011;74113;46.556;24.570;2023-11-21T11:02:03;3.40;;;1.90;;
84031;SDS011;74113;46.556;24.570;2023-11-21T11:04:43;3.50;;;0.80;;
84031;SDS011;74113;46.556;24.570;2023-11-21T11:07:15;3.70;;;2.00;;
84031;SDS011;74113;46.556;24.570;2023-11-21T11:09:44;2.40;;;1.40;;
84031;SDS011;74113;46.556;24.570;2023-11-21T11:12:16;3.00;;;1.00;;
84031;SDS011;74113;46.556;24.570;2023-11-21T11:14:48;2.90;;;1.40;;
84031;SDS011;74113;46.556;24.570;2023-11-21T11:17:19;4.90;;;1.90;;
84031;SDS011;74113;46.556;24.570;2023-11-21T11:19:49;3.90;;;2.20;;
84031;SDS011;74113;46.556;24.570;2023-11-21T11:25:25;2.30;;;1.30;;
84031;SDS011;74113;46.556;24.570;2023-11-21T11:28:04;3.00;;;1.20;;
84031;SDS011;74113;46.556;24.570;2023-11-21T11:33:53;5.10;;;2.00;;
84031;SDS011;74113;46.556;24.570;2023-11-21T11:36:41;2.20;;;1.20;;
84031;SDS011;74113;46.556;24.570;2023-11-21T11:39:34;1.70;;;0.80;;
84031;SDS011;74113;46.556;24.570;2023-11-21T11:42:08;4.00;;;1.30;;
84031;SDS011;74113;46.556;24.570;2023-11-21T11:44:46;2.90;;;1.50;;
84031;SDS011;74113;46.556;24.570;2023-11-21T11:47:26;3.10;;;1.50;;
84031;SDS011;74113;46.556;24.570;2023-11-21T11:52:50;2.60;;;1.70;;
84031;SDS011;74113;46.556;24.570;2023-11-21T11:55:22;2.40;;;1.50;;
84031;SDS011;74113;46.556;24.570;2023-11-21T11:57:53;4.80;;;2.00;;
84031;SDS011;74113;46.556;24.570;2023-11-21T12:03:00;2.90;;;1.70;;
84031;SDS011;74113;46.556;24.570;2023-11-21T12:05:37;1.90;;;0.70;;
84031;SDS011;74113;46.556;24.570;2023-11-21T12:08:16;3.20;;;1.50;;
84031;SDS011;74113;46.556;24.570;2023-11-21T12:10:51;2.70;;;2.30;;
84031;SDS011;74113;46.556;24.570;2023-11-21T12:13:23;3.50;;;1.50;;
84031;SDS011;74113;46.556;24.570;2023-11-21T12:15:53;2.80;;;1.60;;
84031;SDS011;74113;46.556;24.570;2023-11-21T12:18:26;4.50;;;2.40;;
84031;SDS011;74113;46.556;24.570;2023-11-21T12:22:13;2.70;;;1.30;;
84031;SDS011;74113;46.556;24.570;2023-11-21T12:24:43;2.70;;;1.20;;
84031;SDS011;74113;46.556;24.570;2023-11-21T12:27:14;2.20;;;1.10;;
84031;SDS011;74113;46.556;24.570;2023-11-21T12:29:46;5.00;;;1.50;;
84031;SDS011;74113;46.556;24.570;2023-11-21T12:32:15;4.40;;;2.50;;
84031;SDS011;74113;46.556;24.570;2023-11-21T12:34:45;3.70;;;2.00;;
84031;SDS011;74113;46.556;24.570;2023-11-21T12:37:14;5.20;;;1.60;;
84031;SDS011;74113;46.556;24.570;2023-11-21T12:39:43;3.30;;;1.30;;
84031;SDS011;74113;46.556;24.570;2023-11-21T12:42:14;2.60;;;1.40;;
84031;SDS011;74113;46.556;24.570;2023-11-21T12:44:45;2.40;;;0.60;;
84031;SDS011;74113;46.556;24.570;2023-11-21T12:47:19;2.30;;;1.10;;
84031;SDS011;74113;46.556;24.570;2023-11-21T12:49:51;3.00;;;0.80;;
84031;SDS011;74113;46.556;24.570;2023-11-21T12:52:23;1.60;;;0.80;;
84031;SDS011;74113;46.556;24.570;2023-11-21T12:54:53;1.80;;;1.10;;
84031;SDS011;74113;46.556;24.570;2023-11-21T12:57:26;1.60;;;0.60;;
84031;SDS011;74113;46.556;24.570;2023-11-21T12:59:58;1.70;;;0.50;;
84031;SDS011;74113;46.556;24.570;2023-11-21T13:02:31;1.20;;;0.50;;
84031;SDS011;74113;46.556;24.570;2023-11-21T13:05:03;2.30;;;1.30;;
84031;SDS011;74113;46.556;24.570;2023-11-21T13:07:41;1.60;;;1.00;;
84031;SDS011;74113;46.556;24.570;2023-11-21T13:10:16;2.10;;;0.70;;
84031;SDS011;74113;46.556;24.570;2023-11-21T13:12:45;1.80;;;0.90;;
84031;SDS011;74113;46.556;24.570;2023-11-21T13:15:17;1.30;;;0.50;;
84031;SDS011;74113;46.556;24.570;2023-11-21T13:17:46;1.60;;;1.10;;
84031;SDS011;74113;46.556;24.570;2023-11-21T13:20:15;2.00;;;0.90;;
84031;SDS011;74113;46.556;24.570;2023-11-21T13:22:45;2.50;;;0.80;;
84031;SDS011;74113;46.556;24.570;2023-11-21T13:25:25;1.60;;;0.70;;
84031;SDS011;74113;46.556;24.570;2023-11-21T13:27:55;1.90;;;1.60;;
84031;SDS011;74113;46.556;24.570;2023-11-21T13:30:25;1.40;;;0.60;;
84031;SDS011;74113;46.556;24.570;2023-11-21T13:33:02;2.80;;;1.20;;
84031;SDS011;74113;46.556;24.570;2023-11-21T13:35:34;3.00;;;2.30;;
84031;SDS011;74113;46.556;24.570;2023-11-21T13:38:12;2.20;;;1.20;;
84031;SDS011;74113;46.556;24.570;2023-11-21T13:40:41;1.70;;;0.90;;
84031;SDS011;74113;46.556;24.570;2023-11-21T13:43:14;4.40;;;1.00;;
84031;SDS011;74113;46.556;24.570;2023-11-21T13:45:49;1.70;;;1.30;;
84031;SDS011;74113;46.556;24.570;2023-11-21T13:48:28;2.50;;;0.90;;
84031;SDS011;74113;46.556;24.570;2023-11-21T13:51:06;3.10;;;0.70;;
84031;SDS011;74113;46.556;24.570;2023-11-21T13:53:46;1.60;;;0.70;;
84031;SDS011;74113;46.556;24.570;2023-11-21T13:56:19;3.30;;;1.30;;
84031;SDS011;74113;46.556;24.570;2023-11-21T14:01:24;2.80;;;1.10;;
84031;SDS011;74113;46.556;24.570;2023-11-21T14:04:20;3.10;;;1.00;;
84031;SDS011;74113;46.556;24.570;2023-11-21T14:07:10;2.70;;;1.40;;
84031;SDS011;74113;46.556;24.570;2023-11-21T14:09:57;4.30;;;1.80;;
84031;SDS011;74113;46.556;24.570;2023-11-21T14:12:26;4.00;;;2.00;;
84031;SDS011;74113;46.556;24.570;2023-11-21T14:14:57;5.40;;;4.60;;
84031;SDS011;74113;46.556;24.570;2023-11-21T14:17:25;5.40;;;2.50;;
84031;SDS011;74113;46.556;24.570;2023-11-21T14:19:56;6.60;;;3.20;;
84031;SDS011;74113;46.556;24.570;2023-11-21T14:22:24;6.90;;;3.40;;
84031;SDS011;74113;46.556;24.570;2023-11-21T14:24:54;6.30;;;3.00;;
84031;SDS011;74113;46.556;24.570;2023-11-21T14:27:27;7.40;;;3.50;;
84031;SDS011;74113;46.556;24.570;2023-11-21T14:29:57;6.20;;;3.00;;
84031;SDS011;74113;46.556;24.570;2023-11-21T14:32:26;3.50;;;1.60;;
84031;SDS011;74113;46.556;24.570;2023-11-21T14:34:55;4.00;;;1.90;;
84031;SDS011;74113;46.556;24.570;2023-11-21T14:37:24;3.20;;;1.80;;
84031;SDS011;74113;46.556;24.570;2023-11-21T14:39:53;3.50;;;2.40;;
84031;SDS011;74113;46.556;24.570;2023-11-21T14:42:22;3.30;;;1.30;;
84031;SDS011;74113;46.556;24.570;2023-11-21T14:44:53;3.00;;;1.50;;
84031;SDS011;74113;46.556;24.570;2023-11-21T14:47:28;3.20;;;1.50;;
84031;SDS011;74113;46.556;24.570;2023-11-21T14:49:57;2.60;;;1.00;;
84031;SDS011;74113;46.556;24.570;2023-11-21T14:52:28;2.60;;;1.20;;
84031;SDS011;74113;46.556;24.570;2023-11-21T14:55:04;2.60;;;1.40;;
84031;SDS011;74113;46.556;24.570;2023-11-21T14:57:53;4.70;;;2.30;;
84031;SDS011;74113;46.556;24.570;2023-11-21T15:00:22;2.30;;;1.30;;
84031;SDS011;74113;46.556;24.570;2023-11-21T15:03:06;2.70;;;0.90;;
84031;SDS011;74113;46.556;24.570;2023-11-21T15:05:37;3.10;;;2.20;;
84031;SDS011;74113;46.556;24.570;2023-11-21T15:08:08;2.60;;;1.20;;
84031;SDS011;74113;46.556;24.570;2023-11-21T15:10:48;3.00;;;1.80;;
84031;SDS011;74113;46.556;24.570;2023-11-21T15:13:22;3.50;;;3.20;;
84031;SDS011;74113;46.556;24.570;2023-11-21T15:15:52;3.50;;;1.50;;
84031;SDS011;74113;46.556;24.570;2023-11-21T15:18:24;2.20;;;1.00;;
84031;SDS011;74113;46.556;24.570;2023-11-21T15:20:52;3.40;;;2.10;;
84031;SDS011;74113;46.556;24.570;2023-11-21T15:23:23;3.70;;;1.90;;
84031;SDS011;74113;46.556;24.570;2023-11-21T15:25:51;3.60;;;1.50;;
84031;SDS011;74113;46.556;24.570;2023-11-21T15:28:21;4.90;;;1.40;;
84031;SDS011;74113;46.556;24.570;2023-11-21T15:30:49;4.10;;;3.60;;
84031;SDS011;74113;46.556;24.570;2023-11-21T15:33:19;4.00;;;1.60;;
84031;SDS011;74113;46.556;24.570;2023-11-21T15:35:48;4.00;;;2.40;;
84031;SDS011;74113;46.556;24.570;2023-11-21T15:38:17;4.50;;;2.90;;